Time;durP1;ratioP1;P1;durP2;ratioP2;P2;SDS_P1;SDS_P2;PMS_P1;PMS_P2;Temp;Humidity;BMP_temperature;BMP_pressure;BME280_temperature;BME280_humidity;BME280_pressure;Samples;Min_cycle;Max_cycle;Signal;HPM_P1;HPM_P2
2024/04/25 00:02:02;;;;;;;7.13;1.90;;;;;4.40;100464.00;;;;13870247;21;20259;-83
2024/04/25 00:07:04;;;;;;;5.67;2.40;;;;;4.30;100458.00;;;;13819464;21;20277;-86
2024/04/25 00:12:06;;;;;;;6.40;1.70;;;;;4.20;100461.00;;;;13820262;21;20306;-88
2024/04/25 00:17:07;;;;;;;8.00;2.30;;;;;4.10;100453.00;;;;13817496;21;20936;-87
2024/04/25 00:22:09;;;;;;;7.93;2.50;;;;;4.10;100459.00;;;;13819826;21;20352;-79
2024/04/25 00:27:10;;;;;;;5.87;2.30;;;;;4.10;100451.00;;;;13725653;21;20247;-80
2024/04/25 00:32:12;;;;;;;6.30;2.17;;;;;4.00;100441.00;;;;13725199;21;20255;-80
2024/04/25 00:37:13;;;;;;;7.10;2.87;;;;;4.00;100436.00;;;;13818066;21;20949;-80
2024/04/25 00:42:19;;;;;;;10.60;3.30;;;;;3.90;100424.00;;;;13816768;21;20250;-79
2024/04/25 00:47:22;;;;;;;7.93;2.87;;;;;3.90;100429.00;;;;13769821;21;20295;-80
2024/04/25 00:52:25;;;;;;;5.00;3.00;;;;;3.90;100429.00;;;;13815332;21;20251;-80
2024/04/25 00:57:28;;;;;;;7.23;2.73;;;;;3.80;100423.00;;;;13769759;21;20829;-77
2024/04/25 01:02:31;;;;;;;8.70;2.73;;;;;3.80;100423.00;;;;13816721;21;20306;-79
2024/04/25 01:07:32;;;;;;;6.73;2.30;;;;;3.70;100419.00;;;;13721226;21;20248;-80
2024/04/25 01:12:34;;;;;;;9.20;2.77;;;;;3.70;100403.00;;;;13767492;21;20277;-78
2024/04/25 01:17:35;;;;;;;9.57;2.80;;;;;3.60;100407.00;;;;13769754;21;20247;-80
2024/04/25 01:22:45;;;;;;;7.07;2.77;;;;;3.60;100395.00;;;;13721893;21;20252;-77
2024/04/25 01:27:48;;;;;;;7.60;2.20;;;;;3.60;100380.00;;;;13814024;21;20248;-80
2024/04/25 01:32:50;;;;;;;8.10;2.47;;;;;3.60;100384.00;;;;13769444;21;20362;-82
2024/04/25 01:37:51;;;;;;;5.87;2.83;;;;;3.70;100376.00;;;;13722792;21;20251;-82
2024/04/25 01:42:53;;;;;;;10.37;3.37;;;;;3.70;100367.00;;;;13818349;21;20671;-82
2024/04/25 01:47:55;;;;;;;6.70;2.33;;;;;3.70;100367.00;;;;13817406;21;20267;-82
2024/04/25 01:52:56;;;;;;;9.03;2.53;;;;;3.70;100368.00;;;;13817739;21;20296;-82
2024/04/25 01:57:58;;;;;;;5.27;2.00;;;;;3.70;100360.00;;;;13813036;21;20310;-81
2024/04/25 02:02:59;;;;;;;7.67;2.43;;;;;3.80;100364.00;;;;13770505;21;20706;-82
2024/04/25 02:08:01;;;;;;;7.87;2.17;;;;;3.80;100351.00;;;;13769921;21;20282;-81
2024/04/25 02:13:03;;;;;;;5.40;2.30;;;;;3.90;100349.00;;;;13773464;21;20251;-82
2024/04/25 02:18:04;;;;;;;5.33;1.83;;;;;4.00;100355.00;;;;13729984;21;20307;-82
2024/04/25 02:28:26;;;;;;;5.97;1.97;;;;;4.00;100345.00;;;;13817286;21;20281;-82
2024/04/25 02:33:28;;;;;;;5.90;1.90;;;;;4.10;100336.00;;;;13773243;21;20277;-82
2024/04/25 02:38:29;;;;;;;11.20;2.30;;;;;4.10;100332.00;;;;13729768;21;20247;-82
2024/04/25 02:43:31;;;;;;;2.60;1.57;;;;;4.20;100336.00;;;;13819619;21;20251;-78
2024/04/25 02:48:32;;;;;;;8.17;1.93;;;;;4.30;100322.00;;;;13728876;21;20243;-78
2024/04/25 02:53:36;;;;;;;8.43;1.67;;;;;4.30;100319.00;;;;13814293;21;20255;-79
2024/04/25 02:58:37;;;;;;;7.63;1.80;;;;;4.40;100310.00;;;;13774423;21;20350;-78
2024/04/25 03:03:39;;;;;;;5.27;1.50;;;;;4.40;100300.00;;;;13774252;21;20360;-76
2024/04/25 03:08:40;;;;;;;8.90;1.97;;;;;4.40;100303.00;;;;13820007;21;20247;-77
2024/04/25 03:13:42;;;;;;;4.00;1.77;;;;;4.40;100301.00;;;;13772731;21;20270;-78
2024/04/25 03:18:43;;;;;;;7.03;1.67;;;;;4.50;100297.00;;;;13771744;21;20259;-79
2024/04/25 03:23:45;;;;;;;7.07;1.93;;;;;4.50;100291.00;;;;13773349;21;20247;-78
2024/04/25 03:28:47;;;;;;;9.33;2.30;;;;;4.60;100280.00;;;;13772318;21;20294;-77
2024/04/25 03:33:48;;;;;;;6.07;1.67;;;;;4.60;100276.00;;;;13814124;21;20256;-78
2024/04/25 03:38:50;;;;;;;6.07;2.03;;;;;4.70;100282.00;;;;13819052;21;20261;-78
2024/04/25 03:43:52;;;;;;;7.13;1.60;;;;;4.70;100286.00;;;;13816474;21;20256;-77
2024/04/25 03:48:53;;;;;;;5.03;2.03;;;;;4.80;100286.00;;;;13772998;21;20278;-79
2024/04/25 03:53:55;;;;;;;3.90;1.90;;;;;4.80;100283.00;;;;13815332;21;20290;-82
2024/04/25 03:58:57;;;;;;;10.03;2.50;;;;;4.80;100280.00;;;;13770669;21;20267;-82
2024/04/25 04:03:59;;;;;;;3.83;1.97;;;;;4.80;100283.00;;;;13727587;21;20290;-82
2024/04/25 04:09:01;;;;;;;6.03;2.23;;;;;4.70;100282.00;;;;13771719;21;20303;-84
2024/04/25 04:14:03;;;;;;;5.60;2.70;;;;;4.70;100285.00;;;;13815142;21;20267;-83
2024/04/25 04:19:04;;;;;;;8.33;2.70;;;;;4.80;100286.00;;;;13778438;21;20785;-83
2024/04/25 04:24:05;;;;;;;6.60;3.73;;;;;4.80;100280.00;;;;13744923;21;20735;-82
2024/04/25 04:29:07;;;;;;;5.33;2.67;;;;;4.90;100275.00;;;;13799960;21;20247;-82
2024/04/25 04:34:08;;;;;;;9.70;3.20;;;;;4.90;100267.00;;;;13813993;21;20315;-83
2024/04/25 04:39:11;;;;;;;4.90;2.47;;;;;4.90;100268.00;;;;13815474;21;20282;-82
2024/04/25 04:44:13;;;;;;;8.37;3.20;;;;;4.90;100268.00;;;;13683489;21;20251;-81
2024/04/25 04:49:15;;;;;;;11.30;4.77;;;;;5.00;100252.00;;;;13754110;21;20235;-83
2024/04/25 04:54:17;;;;;;;7.97;3.47;;;;;5.00;100255.00;;;;13813662;21;20390;-82
2024/04/25 04:59:18;;;;;;;7.93;3.63;;;;;5.10;100264.00;;;;13728376;21;20942;-82
2024/04/25 05:04:19;;;;;;;5.70;3.77;;;;;5.20;100269.00;;;;13782692;21;20285;-80
2024/04/25 05:09:21;;;;;;;7.50;3.27;;;;;5.20;100273.00;;;;13750649;21;20348;-81
2024/04/25 05:14:22;;;;;;;9.87;4.10;;;;;5.20;100267.00;;;;13814504;21;20673;-81
2024/04/25 05:19:24;;;;;;;14.33;4.13;;;;;5.30;100267.00;;;;13767217;21;20787;-81
2024/04/25 05:24:25;;;;;;;7.47;2.97;;;;;5.40;100266.00;;;;13778275;21;20362;-81
2024/04/25 05:29:26;;;;;;;7.63;3.47;;;;;5.50;100267.00;;;;13787224;21;21171;-80
2024/04/25 05:34:28;;;;;;;11.40;4.53;;;;;5.60;100268.00;;;;13801250;21;20255;-81
2024/04/25 05:39:29;;;;;;;9.20;3.80;;;;;5.70;100261.00;;;;13763374;21;20570;-80
2024/04/25 05:44:31;;;;;;;8.23;4.03;;;;;5.80;100261.00;;;;13721760;21;20252;-79
2024/04/25 05:49:32;;;;;;;12.63;4.03;;;;;5.90;100260.00;;;;13786350;21;20938;-81
2024/04/25 05:54:34;;;;;;;8.93;4.17;;;;;6.00;100252.00;;;;13800281;21;20255;-81
2024/04/25 05:59:35;;;;;;;7.80;4.47;;;;;6.10;100260.00;;;;13764419;21;20258;-81
2024/04/25 06:04:37;;;;;;;6.17;4.47;;;;;6.40;100258.00;;;;13770114;21;20344;-81
2024/04/25 06:09:39;;;;;;;13.23;4.70;;;;;7.00;100250.00;;;;13776819;21;20247;-81
2024/04/25 06:14:40;;;;;;;13.87;4.37;;;;;7.50;100257.00;;;;13790976;21;20686;-81
2024/04/25 06:19:46;;;;;;;6.17;4.20;;;;;7.70;100257.00;;;;13808404;21;20248;-80
2024/04/25 06:24:47;;;;;;;10.93;4.43;;;;;8.00;100251.00;;;;13680849;21;20248;-80
2024/04/25 06:29:49;;;;;;;8.70;3.90;;;;;8.30;100256.00;;;;13780481;21;20251;-81
2024/04/25 06:34:50;;;;;;;8.30;4.17;;;;;8.40;100251.00;;;;13722794;21;20251;-80
2024/04/25 06:39:52;;;;;;;8.60;4.13;;;;;8.50;100254.00;;;;13760154;21;20255;-81
2024/04/25 06:44:53;;;;;;;9.37;3.60;;;;;8.50;100249.00;;;;13809695;21;20344;-81
2024/04/25 06:49:55;;;;;;;9.57;4.00;;;;;8.60;100251.00;;;;13778082;21;20278;-81
2024/04/25 06:54:56;;;;;;;8.03;3.33;;;;;8.70;100238.00;;;;13814023;21;20314;-80
2024/04/25 06:59:58;;;;;;;5.10;3.37;;;;;8.90;100239.00;;;;13759092;21;20666;-81
2024/04/25 07:04:59;;;;;;;8.67;3.50;;;;;9.10;100241.00;;;;13724187;21;20674;-81
2024/04/25 07:10:01;;;;;;;9.83;3.83;;;;;9.40;100228.00;;;;13779357;21;20351;-81
2024/04/25 07:15:06;;;;;;;7.37;3.93;;;;;10.00;100223.00;;;;13789697;21;20251;-80
2024/04/25 07:20:08;;;;;;;13.83;4.83;;;;;10.40;100218.00;;;;13714470;21;20255;-81
2024/04/25 07:25:12;;;;;;;9.13;4.80;;;;;10.10;100216.00;;;;13770581;21;21054;-82
2024/04/25 07:30:13;;;;;;;9.80;4.40;;;;;10.10;100217.00;;;;13684200;21;20357;-82
2024/04/25 07:35:15;;;;;;;9.87;4.77;;;;;10.30;100217.00;;;;13785220;21;20251;-82
2024/04/25 07:40:16;;;;;;;12.00;5.03;;;;;10.70;100209.00;;;;13815243;21;20660;-82
2024/04/25 07:45:18;;;;;;;14.07;5.37;;;;;11.30;100201.00;;;;13726417;21;20248;-82
2024/04/25 07:50:19;;;;;;;11.27;5.20;;;;;12.10;100204.00;;;;13772525;21;20289;-83
2024/04/25 07:55:21;;;;;;;12.03;5.13;;;;;12.30;100211.00;;;;13783491;21;20244;-83
2024/04/25 08:00:23;;;;;;;10.43;4.63;;;;;12.60;100212.00;;;;13796060;21;20251;-82
2024/04/25 08:05:24;;;;;;;15.23;4.20;;;;;12.60;100214.00;;;;13762458;21;20296;-82
2024/04/25 08:10:27;;;;;;;12.70;4.03;;;;;12.40;100208.00;;;;13809763;21;20377;-85
2024/04/25 08:15:29;;;;;;;7.77;3.33;;;;;12.30;100208.00;;;;13732357;21;20247;-84
2024/04/25 08:20:30;;;;;;;10.57;4.03;;;;;12.40;100208.00;;;;13792376;21;20356;-82
2024/04/25 08:25:32;;;;;;;11.07;3.80;;;;;12.70;100202.00;;;;13724053;21;20287;-84
2024/04/25 08:30:33;;;;;;;10.13;3.50;;;;;13.10;100198.00;;;;13762036;21;20340;-83
2024/04/25 08:35:35;;;;;;;13.40;3.47;;;;;13.30;100191.00;;;;13687624;21;20263;-77
2024/04/25 08:40:36;;;;;;;7.47;2.70;;;;;13.50;100189.00;;;;13743063;21;20286;-78
2024/04/25 08:45:39;;;;;;;6.57;2.23;;;;;13.90;100199.00;;;;13756709;21;20289;-78
2024/04/25 08:50:41;;;;;;;9.73;3.27;;;;;13.80;100202.00;;;;13860634;21;20246;-78
2024/04/25 08:55:44;;;;;;;6.50;2.47;;;;;13.70;100193.00;;;;13773469;21;20248;-77
2024/04/25 09:00:45;;;;;;;5.23;2.27;;;;;13.60;100187.00;;;;13784685;21;20307;-77
2024/04/25 09:05:47;;;;;;;8.07;2.47;;;;;13.30;100193.00;;;;13815132;21;20873;-77
2024/04/25 09:10:49;;;;;;;9.60;3.00;;;;;13.30;100182.00;;;;13815193;21;20274;-76
2024/04/25 09:15:50;;;;;;;10.43;3.37;;;;;13.30;100172.00;;;;13725520;21;20273;-77
2024/04/25 09:20:52;;;;;;;10.60;2.87;;;;;13.30;100180.00;;;;13781158;21;20291;-77
2024/04/25 09:25:54;;;;;;;5.83;1.90;;;;;13.50;100181.00;;;;13812971;21;20243;-79
2024/04/25 09:30:55;;;;;;;11.00;3.03;;;;;13.60;100175.00;;;;13803349;21;20829;-79
2024/04/25 09:35:57;;;;;;;8.17;3.30;;;;;13.40;100170.00;;;;13810000;21;20247;-80
2024/04/25 09:41:00;;;;;;;8.80;2.70;;;;;13.60;100162.00;;;;13734530;21;20263;-79
2024/04/25 09:46:09;;;;;;;11.53;2.63;;;;;13.90;100166.00;;;;13746046;21;20252;-84
2024/04/25 09:51:21;;;;;;;8.10;2.40;;;;;14.60;100161.00;;;;13793576;21;20259;-85
2024/04/25 09:56:26;;;;;;;6.65;2.53;;;;;15.00;100161.00;;;;13707042;21;20259;-84
2024/04/25 10:01:28;;;;;;;7.28;2.40;;;;;15.20;100157.00;;;;13780524;21;20252;-85
2024/04/25 10:06:30;;;;;;;8.60;2.72;;;;;15.40;100153.00;;;;13748309;21;20277;-84
2024/04/25 10:11:35;;;;;;;8.55;2.45;;;;;15.10;100147.00;;;;13813556;21;20278;-84
2024/04/25 10:16:37;;;;;;;10.20;2.92;;;;;14.40;100147.00;;;;13768100;21;20247;-85
2024/04/25 10:21:44;;;;;;;5.65;2.15;;;;;14.40;100144.00;;;;13780760;21;20299;-83
2024/04/25 10:26:49;;;;;;;5.57;2.63;;;;;14.90;100127.00;;;;13748513;21;20243;-84
2024/04/25 10:31:50;;;;;;;6.45;2.03;;;;;14.30;100136.00;;;;13807085;21;20358;-85
2024/04/25 10:36:52;;;;;;;8.35;2.13;;;;;14.40;100130.00;;;;13805692;21;20314;-84
2024/04/25 10:41:53;;;;;;;7.50;2.15;;;;;13.90;100119.00;;;;13740999;21;20266;-84
2024/04/25 10:46:55;;;;;;;7.10;2.40;;;;;13.10;100115.00;;;;13709828;21;20255;-83
2024/04/25 10:51:56;;;;;;;4.83;2.60;;;;;12.50;100103.00;;;;13810072;21;20542;-82
2024/04/25 10:56:58;;;;;;;4.73;2.30;;;;;11.70;100102.00;;;;13812166;21;20295;-83
2024/04/25 11:02:04;;;;;;;7.03;2.50;;;;;11.60;100103.00;;;;13780701;21;20336;-83
2024/04/25 11:07:08;;;;;;;6.47;2.63;;;;;13.00;100091.00;;;;13794750;21;20274;-82
2024/04/25 11:12:10;;;;;;;6.95;2.72;;;;;15.90;100084.00;;;;13813536;21;20297;-82
2024/04/25 11:17:15;;;;;;;5.20;2.23;;;;;16.20;100078.00;;;;13811214;21;20251;-82
2024/04/25 11:22:16;;;;;;;5.13;2.55;;;;;15.50;100076.00;;;;13736601;21;20240;-82
2024/04/25 11:27:36;;;;;;;7.88;2.45;;;;;14.50;100074.00;;;;13800592;21;20251;-83
2024/04/25 11:32:38;;;;;;;8.52;2.55;;;;;14.10;100056.00;;;;13810787;21;20361;-82
2024/04/25 11:37:40;;;;;;;5.55;2.80;;;;;14.80;100066.00;;;;13772082;21;20239;-82
2024/04/25 11:42:42;;;;;;;5.68;2.83;;;;;15.40;100048.00;;;;13784389;21;20303;-82
2024/04/25 11:47:43;;;;;;;5.93;3.10;;;;;16.20;100041.00;;;;13727618;21;20354;-83
2024/04/25 11:52:45;;;;;;;8.15;3.33;;;;;15.90;100024.00;;;;13819637;21;20554;-82
2024/04/25 11:57:46;;;;;;;5.38;3.20;;;;;16.40;99995.00;;;;13768229;21;20259;-81
2024/04/25 12:02:48;;;;;;;7.20;3.42;;;;;17.50;99986.00;;;;13779546;21;20334;-84
2024/04/25 12:07:50;;;;;;;6.38;2.92;;;;;17.80;99984.00;;;;13748476;21;20294;-84
2024/04/25 12:12:52;;;;;;;3.25;2.55;;;;;18.00;99980.00;;;;13804344;21;20294;-83
2024/04/25 12:17:55;;;;;;;6.07;2.83;;;;;17.90;99974.00;;;;13809160;21;20248;-82
2024/04/25 12:22:56;;;;;;;5.13;2.85;;;;;18.20;99980.00;;;;13734499;21;20791;-83
2024/04/25 12:27:58;;;;;;;5.55;2.72;;;;;18.00;99981.00;;;;13767439;21;20389;-83
2024/04/25 12:32:59;;;;;;;3.97;2.60;;;;;17.60;99968.00;;;;13799440;21;20373;-84
2024/04/25 12:38:05;;;;;;;5.85;2.80;;;;;17.80;99958.00;;;;13815410;21;20285;-84
2024/04/25 12:43:08;;;;;;;6.60;2.78;;;;;17.90;99934.00;;;;13732093;21;20274;-82
2024/04/25 12:48:10;;;;;;;5.75;2.80;;;;;19.50;99937.00;;;;13787132;21;20377;-82
2024/04/25 12:53:12;;;;;;;5.43;2.58;;;;;19.30;99946.00;;;;13752021;21;20268;-81
2024/04/25 12:58:13;;;;;;;7.13;2.70;;;;;18.40;99940.00;;;;13766873;21;20250;-83
2024/04/25 13:03:14;;;;;;;5.97;3.22;;;;;17.90;99939.00;;;;13771108;21;20259;-82
2024/04/25 13:08:16;;;;;;;6.03;2.50;;;;;17.60;99936.00;;;;13814308;21;20255;-83
2024/04/25 13:13:19;;;;;;;7.63;3.50;;;;;16.90;99934.00;;;;13794338;21;20279;-82
2024/04/25 13:18:21;;;;;;;5.05;3.03;;;;;16.00;99935.00;;;;13807411;21;20251;-83
2024/04/25 13:23:22;;;;;;;4.53;3.53;;;;;15.90;99928.00;;;;13723466;21;20247;-82
2024/04/25 13:28:24;;;;;;;7.22;3.53;;;;;16.40;99915.00;;;;13781162;21;20244;-82
2024/04/25 13:33:25;;;;;;;6.25;3.78;;;;;16.30;99923.00;;;;13791306;21;20311;-82
2024/04/25 13:38:27;;;;;;;5.55;3.35;;;;;15.80;99921.00;;;;13760592;21;20247;-82
2024/04/25 13:43:28;;;;;;;5.30;2.55;;;;;15.20;99921.00;;;;13764599;21;20247;-82
2024/04/25 13:48:30;;;;;;;6.43;3.60;;;;;14.30;99911.00;;;;13813382;21;20251;-82
2024/04/25 13:53:32;;;;;;;7.45;3.67;;;;;13.60;99913.00;;;;13788108;21;20252;-82
2024/04/25 13:58:36;;;;;;;4.93;3.00;;;;;13.30;99902.00;;;;13766661;21;20283;-82
2024/04/25 14:03:38;;;;;;;8.43;3.40;;;;;13.00;99902.00;;;;13760706;21;20282;-82
2024/04/25 14:08:41;;;;;;;6.80;3.03;;;;;12.70;99895.00;;;;13735599;21;20259;-81
2024/04/25 14:13:42;;;;;;;5.43;3.90;;;;;12.30;99889.00;;;;13818629;21;20255;-82
2024/04/25 14:18:44;;;;;;;5.87;3.47;;;;;12.30;99883.00;;;;13803199;21;20247;-83
2024/04/25 14:23:46;;;;;;;7.47;3.23;;;;;12.30;99887.00;;;;13729309;21;20363;-78
2024/04/25 14:28:52;;;;;;;9.33;3.77;;;;;12.20;99879.00;;;;13775967;21;20293;-79
2024/04/25 14:33:54;;;;;;;12.53;7.60;;;;;11.80;99879.00;;;;13789780;21;21005;-78
2024/04/25 14:38:55;;;;;;;20.17;13.03;;;;;11.50;99871.00;;;;13757551;21;20255;-79
2024/04/25 14:43:57;;;;;;;25.47;15.90;;;;;11.20;99873.00;;;;13814861;21;20255;-79
2024/04/25 14:48:59;;;;;;;15.47;5.53;;;;;10.90;99874.00;;;;13734430;21;21078;-79
2024/04/25 14:54:02;;;;;;;12.70;4.40;;;;;10.80;99875.00;;;;13818425;21;20256;-79
2024/04/25 14:59:04;;;;;;;7.60;3.87;;;;;10.70;99864.00;;;;13754995;21;20353;-79
2024/04/25 15:04:08;;;;;;;5.70;3.90;;;;;10.60;99859.00;;;;13685588;21;20259;-78
2024/04/25 15:09:12;;;;;;;6.53;4.00;;;;;10.60;99856.00;;;;13727360;21;21110;-78
2024/04/25 15:14:13;;;;;;;10.73;4.13;;;;;10.50;99848.00;;;;13786022;21;20255;-78
2024/04/25 15:19:15;;;;;;;7.33;4.13;;;;;10.40;99846.00;;;;13708319;21;20247;-79
2024/04/25 15:24:16;;;;;;;8.77;3.83;;;;;10.30;99838.00;;;;13810066;21;20336;-79
2024/04/25 15:29:18;;;;;;;8.67;4.20;;;;;10.20;99833.00;;;;13681967;21;20282;-78
2024/04/25 15:34:19;;;;;;;7.27;4.50;;;;;10.20;99831.00;;;;13825663;21;20344;-81
2024/04/25 15:39:21;;;;;;;7.70;4.93;;;;;10.20;99822.00;;;;13792270;21;20259;-81
2024/04/25 15:44:22;;;;;;;8.57;5.00;;;;;10.10;99807.00;;;;13760070;21;20251;-83
2024/04/25 15:49:24;;;;;;;10.37;5.03;;;;;10.20;99817.00;;;;13818756;21;21173;-81
2024/04/25 15:54:26;;;;;;;6.73;4.70;;;;;10.20;99810.00;;;;13777279;21;20299;-80
2024/04/25 15:59:27;;;;;;;12.03;4.60;;;;;10.40;99798.00;;;;13817046;21;21017;-81
2024/04/25 16:04:29;;;;;;;8.53;5.53;;;;;10.50;99795.00;;;;13755765;21;20255;-81
2024/04/25 16:09:30;;;;;;;10.97;5.43;;;;;10.80;99795.00;;;;13813755;21;20347;-81
2024/04/25 16:14:32;;;;;;;7.27;4.27;;;;;11.10;99790.00;;;;13771978;21;20282;-80
2024/04/25 16:19:35;;;;;;;9.40;4.90;;;;;11.30;99790.00;;;;13815957;21;20252;-81
2024/04/25 16:24:36;;;;;;;10.00;5.27;;;;;11.30;99787.00;;;;13814973;21;20251;-82
2024/04/25 16:29:38;;;;;;;11.33;4.43;;;;;11.30;99777.00;;;;13808153;21;20251;-81
2024/04/25 16:34:39;;;;;;;8.57;4.47;;;;;11.30;99774.00;;;;13769550;21;20295;-81
2024/04/25 16:39:41;;;;;;;12.50;4.90;;;;;11.20;99773.00;;;;13768737;21;20299;-82
2024/04/25 16:44:42;;;;;;;12.93;4.57;;;;;11.40;99770.00;;;;13815830;21;20268;-80
2024/04/25 16:49:44;;;;;;;6.67;4.27;;;;;11.40;99761.00;;;;13762887;21;20259;-79
2024/04/25 16:54:45;;;;;;;7.63;4.20;;;;;11.40;99755.00;;;;13811010;21;20271;-79
2024/04/25 16:59:48;;;;;;;8.80;4.17;;;;;11.20;99755.00;;;;13778161;21;20285;-80
2024/04/25 17:04:52;;;;;;;7.27;3.87;;;;;11.10;99752.00;;;;13745153;21;20256;-79
2024/04/25 17:09:53;;;;;;;10.47;4.87;;;;;11.00;99756.00;;;;13757266;21;20266;-79
2024/04/25 17:14:55;;;;;;;8.13;4.37;;;;;11.10;99749.00;;;;13817282;21;20397;-79
2024/04/25 17:19:56;;;;;;;9.03;3.87;;;;;11.00;99745.00;;;;13774519;21;20569;-80
2024/04/25 17:24:58;;;;;;;8.57;4.07;;;;;11.00;99733.00;;;;13724720;21;20259;-79
2024/04/25 17:30:01;;;;;;;8.93;3.70;;;;;11.00;99737.00;;;;13796497;21;20259;-81
2024/04/25 17:35:03;;;;;;;11.87;4.60;;;;;10.80;99730.00;;;;13810651;21;20669;-80
2024/04/25 17:40:07;;;;;;;7.80;4.17;;;;;10.50;99729.00;;;;13727388;21;20976;-79
2024/04/25 17:45:09;;;;;;;10.13;4.30;;;;;10.30;99730.00;;;;13785062;21;20366;-81
2024/04/25 17:50:10;;;;;;;7.00;3.57;;;;;10.20;99736.00;;;;13796668;21;20954;-79
2024/04/25 17:55:12;;;;;;;13.40;4.37;;;;;10.20;99737.00;;;;13764423;21;20956;-78
2024/04/25 18:00:15;;;;;;;8.40;4.17;;;;;10.10;99735.00;;;;13723231;21;20255;-79
2024/04/25 18:05:16;;;;;;;6.37;4.17;;;;;10.10;99736.00;;;;13782033;21;20252;-80
2024/04/25 18:10:18;;;;;;;8.73;4.33;;;;;10.00;99739.00;;;;13705616;21;20248;-78
2024/04/25 18:15:19;;;;;;;7.17;3.63;;;;;9.90;99741.00;;;;13717893;21;20335;-78
2024/04/25 18:20:21;;;;;;;8.90;4.00;;;;;9.80;99743.00;;;;13854275;21;20281;-80
2024/04/25 18:25:22;;;;;;;6.50;4.20;;;;;9.60;99752.00;;;;13777447;21;20252;-80
2024/04/25 18:30:24;;;;;;;5.30;4.13;;;;;9.40;99753.00;;;;13812777;21;20255;-79
2024/04/25 18:35:25;;;;;;;13.93;5.23;;;;;9.30;99765.00;;;;13798949;21;20302;-80
2024/04/25 18:40:27;;;;;;;9.90;5.27;;;;;9.20;99764.00;;;;13814695;21;20270;-79
2024/04/25 18:45:29;;;;;;;14.63;5.93;;;;;9.10;99770.00;;;;13775225;21;20315;-80
2024/04/25 18:50:30;;;;;;;10.90;6.17;;;;;9.00;99775.00;;;;13786911;21;20352;-81
2024/04/25 18:55:32;;;;;;;12.07;6.40;;;;;8.90;99778.00;;;;13821069;21;20251;-82
2024/04/25 19:00:34;;;;;;;12.73;5.40;;;;;8.70;99777.00;;;;13777370;21;20254;-82
2024/04/25 19:05:35;;;;;;;10.93;5.73;;;;;8.50;99775.00;;;;13776103;21;20259;-84
2024/04/25 19:10:37;;;;;;;9.60;5.80;;;;;8.40;99772.00;;;;13819459;21;20251;-84
2024/04/25 19:15:38;;;;;;;10.93;5.73;;;;;8.20;99773.00;;;;13818367;21;20294;-84
2024/04/25 19:20:40;;;;;;;19.00;7.00;;;;;8.10;99768.00;;;;13810643;21;20251;-83
2024/04/25 19:25:41;;;;;;;11.87;6.93;;;;;8.00;99769.00;;;;13813865;21;20251;-82
2024/04/25 19:30:43;;;;;;;10.33;6.77;;;;;8.00;99773.00;;;;13736960;21;20968;-83
2024/04/25 19:35:44;;;;;;;14.30;6.87;;;;;8.00;99778.00;;;;13750122;21;20374;-82
2024/04/25 19:40:45;;;;;;;17.80;7.53;;;;;7.90;99768.00;;;;13806167;21;20969;-81
2024/04/25 19:45:47;;;;;;;15.60;7.97;;;;;7.90;99761.00;;;;13811956;21;20277;-83
2024/04/25 19:50:49;;;;;;;14.43;7.23;;;;;7.90;99744.00;;;;13817823;21;20239;-82
2024/04/25 19:55:51;;;;;;;13.40;7.10;;;;;7.90;99749.00;;;;13746070;21;20259;-81
2024/04/25 20:00:52;;;;;;;14.57;7.27;;;;;7.90;99749.00;;;;13801376;21;20864;-81
2024/04/25 20:05:55;;;;;;;10.77;6.47;;;;;7.90;99742.00;;;;13817081;21;20251;-81
2024/04/25 20:10:56;;;;;;;10.93;6.83;;;;;7.90;99748.00;;;;13774562;21;20255;-82
2024/04/25 20:15:59;;;;;;;10.60;6.73;;;;;7.90;99741.00;;;;13787571;21;20263;-82
2024/04/25 20:21:05;;;;;;;10.03;6.27;;;;;7.90;99736.00;;;;13801086;21;20247;-82
2024/04/25 20:26:09;;;;;;;10.50;5.90;;;;;7.90;99735.00;;;;13768713;21;20403;-82
2024/04/25 20:31:17;;;;;;;14.67;6.47;;;;;7.90;99730.00;;;;13684508;21;20345;-82
2024/04/25 20:36:20;;;;;;;14.03;6.90;;;;;7.90;99723.00;;;;13789395;21;20259;-82
2024/04/25 20:41:23;;;;;;;10.30;6.67;;;;;7.90;99732.00;;;;13769025;21;20263;-82
2024/04/25 20:46:24;;;;;;;12.70;5.93;;;;;7.90;99738.00;;;;13811613;21;20281;-82
2024/04/25 20:51:26;;;;;;;15.03;6.63;;;;;8.00;99734.00;;;;13813556;21;20274;-82
2024/04/25 20:56:27;;;;;;;15.67;7.03;;;;;8.00;99733.00;;;;13784955;21;21133;-83
2024/04/25 21:01:29;;;;;;;10.93;6.67;;;;;8.10;99731.00;;;;13814401;21;20331;-83
2024/04/25 21:06:31;;;;;;;10.67;6.57;;;;;8.10;99733.00;;;;13808787;21;20328;-82
2024/04/25 21:11:32;;;;;;;12.47;6.53;;;;;8.20;99732.00;;;;13722707;21;20402;-82
2024/04/25 21:16:38;;;;;;;14.33;6.67;;;;;8.20;99724.00;;;;13781225;21;20251;-82
2024/04/25 21:21:45;;;;;;;8.60;5.93;;;;;8.30;99739.00;;;;13750804;21;20307;-82
2024/04/25 21:26:46;;;;;;;11.13;5.97;;;;;8.30;99720.00;;;;13765585;21;20740;-77
2024/04/25 21:31:52;;;;;;;10.90;6.20;;;;;8.30;99731.00;;;;13716405;21;20256;-77
2024/04/25 21:36:53;;;;;;;10.30;5.80;;;;;8.30;99727.00;;;;13814117;21;20330;-77
2024/04/25 21:41:55;;;;;;;9.00;5.30;;;;;8.40;99730.00;;;;13724210;21;20251;-77
2024/04/25 21:46:56;;;;;;;10.37;6.17;;;;;8.40;99725.00;;;;13807341;21;20255;-77
2024/04/25 21:51:58;;;;;;;10.80;5.97;;;;;8.40;99717.00;;;;13811889;21;20251;-78
2024/04/25 21:56:59;;;;;;;11.00;6.00;;;;;8.30;99722.00;;;;13779510;21;20243;-78
2024/04/25 22:02:01;;;;;;;10.30;5.80;;;;;8.30;99715.00;;;;13746106;21;20378;-77
2024/04/25 22:07:03;;;;;;;9.83;5.97;;;;;8.30;99714.00;;;;13757578;21;20251;-78
2024/04/25 22:12:04;;;;;;;12.10;6.43;;;;;8.30;99718.00;;;;13763731;21;20662;-77
2024/04/25 22:17:09;;;;;;;10.80;5.60;;;;;8.30;99712.00;;;;13688030;21;20251;-77
2024/04/25 22:22:10;;;;;;;8.17;5.57;;;;;8.30;99713.00;;;;13788711;21;20251;-76
2024/04/25 22:27:12;;;;;;;11.77;5.27;;;;;8.30;99702.00;;;;13682365;21;20372;-79
2024/04/25 22:32:14;;;;;;;7.57;4.97;;;;;8.30;99705.00;;;;13771197;21;20367;-80
2024/04/25 22:37:15;;;;;;;10.63;4.70;;;;;8.30;99703.00;;;;13818813;21;20306;-80
2024/04/25 22:42:16;;;;;;;9.67;4.83;;;;;8.30;99696.00;;;;13727044;21;20248;-80
2024/04/25 22:47:18;;;;;;;7.63;4.57;;;;;8.30;99700.00;;;;13756605;21;20270;-80
2024/04/25 22:52:21;;;;;;;7.20;4.07;;;;;8.30;99707.00;;;;13768964;21;20255;-80
2024/04/25 22:57:22;;;;;;;10.43;4.20;;;;;8.30;99702.00;;;;13686480;21;20247;-80
2024/04/25 23:02:24;;;;;;;11.57;4.70;;;;;8.30;99696.00;;;;13727620;21;20255;-80
2024/04/25 23:07:25;;;;;;;11.50;5.40;;;;;8.30;99692.00;;;;13797888;21;20247;-80
2024/04/25 23:12:27;;;;;;;8.90;4.40;;;;;8.30;99689.00;;;;13811146;21;20298;-81
2024/04/25 23:17:28;;;;;;;10.30;4.20;;;;;8.30;99691.00;;;;13819583;21;20353;-79
2024/04/25 23:22:30;;;;;;;12.47;4.63;;;;;8.30;99684.00;;;;13728788;21;20251;-79
2024/04/25 23:27:32;;;;;;;13.27;4.50;;;;;8.20;99669.00;;;;13706064;21;20247;-79
2024/04/25 23:32:34;;;;;;;11.33;4.30;;;;;8.20;99673.00;;;;13770599;21;20263;-79
2024/04/25 23:37:35;;;;;;;8.97;4.10;;;;;8.30;99677.00;;;;13766754;21;20256;-81
2024/04/25 23:42:37;;;;;;;8.57;4.07;;;;;8.30;99658.00;;;;13780024;21;20357;-79
2024/04/25 23:47:38;;;;;;;9.00;3.80;;;;;8.30;99658.00;;;;13816557;21;20543;-80
2024/04/25 23:52:40;;;;;;;7.63;3.97;;;;;8.20;99645.00;;;;13814604;21;20255;-81
2024/04/25 23:57:41;;;;;;;8.23;3.83;;;;;8.20;99644.00;;;;13769036;21;20254;-79
